Latest Weather Observations for Julia Creek

IDQ60801

Issued at 10:02 pm EST Saturday 1 October 2016 (issued every 30 minutes, with the page automatically refreshed every 10 minutes)

About weather observations | Map of weather stations | Latest weather observations for QLD | Other Formats
Station Details ID: 029058 Name: JULIA CREEK AIRPORT Lat: -20.67 Lon: 141.72 Height: 122.5 m
Data from the previous 72 hours. | See also: Recent months at Julia Creek
Date/Time
EST
Temp
°C
App
Temp
°C
Dew
Point
°C
Rel
Hum
%
Delta-T
°C
Wind Press
QNH
hPa
Press
MSL
hPa
Rain since
9am
mm
Dir  Spd
km/h
Gust
km/h
Spd
kts
Gust
kts
01/10:00pm 17.3 12.8 -2.9 25 8.3 SE 11 13 6 7 1012.4 1011.7 0.0
01/09:30pm 17.4 12.6 -2.8 25 8.3 SSE 13 13 7 7 1012.2 1011.5 0.0
01/09:00pm 18.0 13.2 -2.8 24 8.6 SSE 13 17 7 9 1012.0 1011.3 0.0
01/08:30pm 19.6 15.2 -2.7 22 9.4 SE 11 13 6 7 1011.5 1010.8 0.0
01/08:00pm 20.4 15.1 -3.3 20 9.9 SE 15 15 8 8 1011.2 1010.5 0.0
01/07:30pm 21.7 16.4 -3.6 18 10.6 ESE 15 15 8 8 1010.8 1010.1 0.0
01/07:00pm 23.9 19.4 -3.4 16 11.8 SSE 11 11 6 6 1010.9 1010.2 0.0
01/06:30pm 26.3 21.7 -4.3 13 13.2 SSE 11 11 6 6 1010.8 1010.1 0.0
01/06:00pm 30.6 25.7 -7.4 8 16.1 SSE 11 17 6 9 1010.6 1009.9 0.0
01/05:30pm 31.6 27.1 -6.6 8 16.6 SE 9 17 5 9 1010.4 1009.7 0.0
01/05:00pm 32.2 27.0 -6.2 8 16.9 SSE 13 19 7 10 1010.4 1009.7 0.0
01/04:30pm 32.8 27.6 -5.7 8 17.1 ESE 13 22 7 12 1010.7 1010.0 0.0
01/04:00pm 32.7 27.5 -5.8 8 17.1 S 13 28 7 15 1011.0 1010.3 0.0
01/03:30pm 32.3 28.4 -6.1 8 16.9 SSE 6 19 3 10 1011.2 1010.5 0.0
01/03:00pm 32.2 26.6 -6.2 8 16.9 SSE 15 24 8 13 1011.5 1010.8 0.0
01/02:30pm 32.2 27.8 -6.2 8 16.9 SSW 9 20 5 11 1011.9 1011.2 0.0
01/02:00pm 32.3 26.7 -6.1 8 16.9 SSW 15 24 8 13 1012.2 1011.5 0.0
01/01:30pm 32.3 27.6 -4.6 9 16.7 SE 11 22 6 12 1012.8 1012.1 0.0
01/01:00pm 30.9 25.6 -7.1 8 16.3 S 13 24 7 13 1013.4 1012.7 0.0
01/12:30pm 31.3 26.2 -5.3 9 16.2 S 13 28 7 15 1013.8 1013.1 0.0
01/12:00pm 30.1 25.4 -4.8 10 15.4 S 11 24 6 13 1014.4 1013.6 0.0
01/11:30am 29.4 24.0 -4.1 11 14.9 ESE 15 22 8 12 1014.9 1014.1 0.0
01/11:00am 29.1 23.8 -3.2 12 14.6 ESE 15 24 8 13 1015.6 1014.8 0.0
01/10:30am 28.1 23.0 -1.9 14 13.7 E 15 24 8 13 1015.9 1015.1 0.0
01/10:00am 26.2 20.4 -1.6 16 12.6 E 19 26 10 14 1016.2 1015.4 0.0
01/09:30am 25.4 19.6 0.1 19 11.8 E 20 30 11 16 1016.3 1015.7 0.0
01/09:00am 23.5 18.0 0.6 22 10.6 E 19 28 10 15 1016.3 1015.7 0.0
01/08:30am 21.2 16.1 1.0 26 9.2 E 17 20 9 11 1016.4 1015.8 0.0
01/08:00am 17.8 12.7 0.5 31 7.6 ESE 17 22 9 12 1015.9 1015.3 0.0
01/07:30am 14.4 9.6 0.3 38 6.0 ESE 15 20 8 11 1015.2 1014.6 0.0
01/07:00am 10.4 6.0 0.2 49 4.2 ESE 13 17 7 9 1014.8 1014.2 0.0
01/06:30am 7.5 3.4 0.0 59 3.0 SE 11 13 6 7 1014.2 1013.6 0.0
01/06:00am 6.8 3.0 -0.4 60 2.8 SE 9 11 5 6 1014.1 1013.5 0.0
01/05:30am 7.3 3.2 -0.4 58 3.0 SE 11 13 6 7 1013.5 1013.0 0.0
01/05:00am 7.6 3.8 -0.4 57 3.1 SE 9 9 5 5 1013.1 1012.6 0.0
01/04:30am 8.0 4.2 -0.5 55 3.3 ESE 9 11 5 6 1012.7 1012.2 0.0
01/04:00am 8.3 3.8 -0.2 55 3.4 ESE 13 17 7 9 1012.5 1012.0 0.0
01/03:30am 8.4 4.2 -0.6 53 3.5 ESE 11 13 6 7 1012.7 1012.2 0.0
01/03:00am 8.3 4.1 -1.0 52 3.6 ESE 11 13 6 7 1012.6 1012.1 0.0
01/02:30am 10.0 6.2 -0.8 47 4.3 ESE 9 9 5 5 1012.6 1012.1 0.0
01/02:00am 9.8 6.0 -0.4 49 4.1 SE 9 9 5 5 1012.6 1012.1 0.0
01/01:30am 9.6 6.2 -0.9 48 4.1 SSE 7 9 4 5 1012.6 1012.1 0.0
01/01:00am 10.3 6.5 -0.8 46 4.4 SSE 9 11 5 6 1012.5 1012.0 0.0
01/12:30am 11.8 7.9 -1.3 40 5.2 ESE 9 11 5 6 1012.6 1012.1 0.0
01/12:00am 12.0 7.4 -1.2 40 5.3 SE 13 15 7 8 1012.6 1012.1 0.0
 
Date/Time
EST
Temp
°C
App
Temp
°C
Dew
Point
°C
Rel
Hum
%
Delta-T
°C
Wind Press
QNH
hPa
Press
MSL
hPa
Rain since
9am
mm
Dir  Spd
km/h
Gust
km/h
Spd
kts
Gust
kts
30/11:30pm 12.1 7.7 -2.1 37 5.6 ESE 11 13 6 7 1012.4 1011.9 0.0
30/11:00pm 13.6 9.6 -2.3 33 6.3 ESE 9 11 5 6 1012.5 1012.0 0.0
30/10:30pm 15.4 10.6 -2.5 29 7.2 ESE 13 15 7 8 1012.4 1011.9 0.0
30/10:00pm 15.9 10.8 -2.1 29 7.4 SE 15 17 8 9 1012.2 1011.7 0.0
30/09:30pm 16.3 10.8 -2.2 28 7.6 SE 17 19 9 10 1012.4 1011.9 0.0
30/09:00pm 16.1 11.4 -1.9 29 7.4 SE 13 15 7 8 1012.3 1011.8 0.0
30/08:30pm 16.3 10.9 -1.7 29 7.5 SSE 17 17 9 9 1011.8 1011.3 0.0
30/08:00pm 18.3 12.8 -2.0 25 8.5 SSE 17 17 9 9 1011.6 1011.1 0.0
30/07:30pm 18.5 13.3 -2.4 24 8.7 SSE 15 17 8 9 1011.3 1010.8 0.0
30/07:00pm 20.8 15.9 -3.0 20 10.0 SSE 13 15 7 8 1011.1 1010.6 0.0
30/06:30pm 23.8 19.5 -4.4 15 11.9 S 9 11 5 6 1010.9 1010.3 0.0
30/06:00pm 27.2 23.2 -5.8 11 14.0 S 7 13 4 7 1010.6 1010.0 0.0
30/05:30pm 28.3 24.2 -6.2 10 14.7 S 7 19 4 10 1010.6 1010.0 0.0
30/05:00pm 29.1 25.0 -7.0 9 15.2 SW 7 13 4 7 1010.5 1009.9 0.0
30/04:30pm 29.2 24.3 -6.9 9 15.3 SSW 11 19 6 10 1010.4 1009.8 0.0
30/04:00pm 29.0 23.2 -8.5 8 15.4 SSW 15 20 8 11 1010.6 1010.0 0.0
30/03:30pm 29.5 24.6 -6.7 9 15.4 SE 11 19 6 10 1010.7 1010.1 0.0
30/03:00pm 29.1 24.2 -7.0 9 15.2 SSW 11 19 6 10 1011.0 1010.5 0.0
30/02:30pm 28.9 23.7 -5.7 10 14.9 SSW 13 22 7 12 1011.4 1010.9 0.0
30/02:00pm 27.6 23.6 -5.5 11 14.2 SSE 7 24 4 13 1012.0 1011.5 0.0
30/01:30pm 27.9 23.7 -4.1 12 14.1 SSE 9 20 5 11 1012.6 1012.1 0.0
30/01:00pm 27.1 22.9 -3.7 13 13.5 SSW 9 17 5 9 1013.0 1012.5 0.0
30/12:30pm 26.7 22.6 -3.0 14 13.2 SSE 9 26 5 14 1013.5 1013.0 0.0
30/12:00pm 25.1 20.2 -3.3 15 12.4 SSE 13 22 7 12 1014.1 1013.5 0.0
30/11:30am 25.1 20.0 -1.6 17 12.0 SSE 15 24 8 13 1014.6 1014.0 0.0
30/11:00am 24.1 18.9 -2.4 17 11.6 SSE 15 26 8 14 1015.0 1014.4 0.0
30/10:30am 23.4 18.6 -2.2 18 11.2 SSE 13 22 7 12 1015.3 1014.7 0.0
30/10:00am 22.6 17.4 -2.9 18 10.9 SSE 15 24 8 13 1015.6 1015.0 0.0
30/09:30am 22.0 17.0 -1.3 21 10.3 SE 15 32 8 17 1015.8 1015.2 0.0
30/09:00am 21.1 15.8 -0.8 23 9.7 ESE 17 28 9 15 1016.0 1015.4 0.0
30/08:30am 19.7 14.0 0.7 28 8.5 ESE 20 24 11 13 1015.7 1015.1 0.0
30/08:00am 17.6 12.8 2.4 36 6.9 ESE 17 22 9 12 1015.4 1014.8 0.0
30/07:30am 14.7 11.3 3.8 48 5.0 ESE 11 13 6 7 1014.9 1014.3 0.0
30/07:00am 10.0 7.0 4.2 67 2.6 ESE 9 11 5 6 1014.5 1013.9 0.0
30/06:30am 7.1 3.9 3.0 75 1.7 ESE 9 9 5 5 1014.1 1013.5 0.0
30/06:00am 7.3 4.5 3.2 75 1.7 SE 7 9 4 5 1013.7 1013.2 0.0
30/05:30am 7.7 3.8 3.4 74 1.8 SE 13 13 7 7 1013.1 1012.6 0.0
30/05:00am 8.1 4.3 3.8 74 1.9 SSE 13 15 7 8 1013.1 1012.6 0.0
30/04:30am 7.5 4.4 3.4 75 1.8 S 9 11 5 6 1012.8 1012.3 0.0
30/04:00am 8.7 6.0 3.9 72 2.1 SSE 7 9 4 5 1012.7 1012.2 0.0
30/03:30am 9.8 7.2 4.0 67 2.6 SE 7 7 4 4 1012.6 1012.1 0.0
30/03:00am 10.8 8.4 4.3 64 2.9 ESE 6 7 3 4 1012.7 1012.2 0.0
30/02:30am 11.1 9.1 4.6 64 3.0 E 4 6 2 3 1013.1 1012.6 0.0
30/02:00am 11.9 9.3 4.4 60 3.4 ESE 7 9 4 5 1012.9 1012.4 0.0
30/01:30am 12.1 8.8 4.6 60 3.4 SE 11 13 6 7 1012.6 1012.1 0.0
30/01:00am 13.8 10.9 4.9 55 4.2 ESE 9 11 5 6 1012.6 1012.1 0.0
30/12:30am 14.1 10.5 5.2 55 4.2 SE 13 13 7 7 1012.4 1011.9 0.0
30/12:00am 14.3 10.8 5.4 55 4.2 SE 13 13 7 7 1012.5 1012.0 0.0
 
Date/Time
EST
Temp
°C
App
Temp
°C
Dew
Point
°C
Rel
Hum
%
Delta-T
°C
Wind Press
QNH
hPa
Press
MSL
hPa
Rain since
9am
mm
Dir  Spd
km/h
Gust
km/h
Spd
kts
Gust
kts
29/11:30pm 15.0 12.3 5.5 53 4.5 SSE 9 11 5 6 1012.5 1012.0 0.0
29/11:00pm 15.8 12.4 5.7 51 4.9 SSE 13 15 7 8 1012.3 1011.8 0.0
29/10:30pm 16.9 15.9 5.8 48 5.4 CALM 0 7 0 4 1012.0 1011.5 0.0
29/10:00pm 18.0 17.1 6.2 46 5.9 CALM 0 0 0 0 1011.6 1011.1 0.0
29/09:30pm 18.5 15.9 6.0 44 6.2 S 9 11 5 6 1011.0 1010.5 0.0
29/09:00pm 19.1 15.7 5.9 42 6.6 S 13 13 7 7 1010.4 1009.8 0.0
29/08:30pm 20.3 17.6 5.5 38 7.3 SSE 9 9 5 5 1010.2 1009.6 0.0
29/08:00pm 21.2 20.1 5.1 35 8.0 CALM 0 6 0 3 1009.7 1009.1 0.0
29/07:30pm 22.8 18.9 5.3 32 8.8 SSW 15 19 8 10 1009.0 1008.4 0.0
29/07:00pm 23.8 20.2 5.2 30 9.4 S 13 17 7 9 1008.7 1008.1 0.0
29/06:30pm 25.4 20.6 5.6 28 10.2 SSW 20 28 11 15 1008.3 1007.7 0.0
29/06:00pm 26.4 21.4 7.9 31 10.0 SSW 24 33 13 18 1008.2 1007.6 0.0
29/05:30pm 26.4 21.5 8.4 32 9.8 S 24 33 13 18 1008.0 1007.4 0.0
29/05:00pm 26.0 20.2 9.4 35 9.2 SSW 30 39 16 21 1008.0 1007.4 0.0
29/04:30pm 26.5 21.7 11.8 40 8.5 SSW 28 37 15 20 1007.9 1007.3 0.0
29/04:00pm 26.5 21.7 12.9 43 8.0 SSW 30 41 16 22 1007.9 1007.3 0.0
29/03:30pm 26.9 22.0 13.6 44 7.9 SSW 32 43 17 23 1007.8 1007.2 0.0
29/03:00pm 28.4 23.9 15.0 44 8.2 SSW 32 41 17 22 1007.5 1006.9 0.0
29/02:30pm 30.4 26.4 15.3 40 9.3 SW 30 41 16 22 1007.7 1007.1 0.0
29/02:00pm 30.6 26.2 15.1 39 9.6 SSW 32 43 17 23 1007.9 1007.3 0.0
29/01:30pm 30.7 26.2 14.8 38 9.8 SSW 32 44 17 24 1007.9 1007.3 0.0
29/01:00pm 33.0 30.0 12.6 29 12.3 SW 20 33 11 18 1008.0 1007.4 0.0
29/12:30pm 32.2 29.0 11.9 29 12.0 WSW 20 32 11 17 1008.5 1007.9 0.0
29/12:00pm 32.3 29.9 12.5 30 11.8 WSW 17 30 9 16 1008.9 1008.3 0.0
29/11:30am 31.4 30.4 12.2 30 11.4 WNW 9 20 5 11 1009.3 1008.7 0.0
29/11:00am 30.5 28.6 12.9 34 10.5 WNW 15 24 8 13 1009.7 1009.1 0.0
29/10:30am 29.7 28.8 12.6 35 10.1 W 9 17 5 9 1010.0 1009.4 0.0
29/10:00am 28.6 27.8 12.9 38 9.3 NNW 9 19 5 10 1010.2 1009.6 0.0
29/09:30am 27.5 28.0 12.7 40 8.7 N 2 9 1 5 1010.5 1009.9 0.0
29/09:00am 26.3 26.1 13.1 44 7.8 N 6 11 3 6 1010.5 1009.9 0.2
29/08:30am 24.1 25.8 15.3 58 5.3 CALM 0 2 0 1 1010.6 1010.0 0.2
29/08:00am 22.4 24.2 15.5 65 4.2 CALM 0 0 0 0 1010.1 1009.5 0.2
29/07:30am 21.2 23.4 16.6 75 2.8 CALM 0 0 0 0 1009.4 1008.8 0.2
29/07:00am 19.8 22.1 16.8 83 1.8 CALM 0 0 0 0 1009.0 1008.4 0.2
29/06:30am 18.9 21.1 16.5 86 1.4 CALM 0 0 0 0 1008.8 1008.2 0.2
29/06:00am 19.5 21.7 16.5 83 1.8 CALM 0 0 0 0 1008.4 1007.8 0.2
29/05:30am 19.3 19.3 16.3 83 1.8 SE 11 15 6 8 1008.0 1007.4 0.2
29/05:00am 19.6 21.2 15.9 79 2.2 SE 2 9 1 5 1008.5 1007.9 0.2
29/04:30am 21.2 19.9 13.6 62 4.4 SW 13 20 7 11 1009.6 1009.0 0.0
29/04:00am 21.6 20.6 12.2 55 5.3 SSW 9 11 5 6 1008.7 1008.1 0.0
29/03:30am 21.2 21.7 11.5 54 5.4 CALM 0 0 0 0 1008.5 1007.9 0.0
29/03:00am 21.6 20.4 11.6 53 5.6 WSW 9 11 5 6 1008.8 1008.2 0.0
29/02:30am 22.0 22.4 11.4 51 5.9 CALM 0 0 0 0 1008.6 1008.0 0.0
29/02:00am 22.9 22.6 11.6 49 6.4 E 4 7 2 4 1008.3 1007.7 0.0
29/01:30am 23.0 22.3 11.4 48 6.5 E 6 9 3 5 1009.0 1008.4 0.0
29/01:00am 23.0 22.1 11.4 48 6.5 ESE 7 11 4 6 1009.2 1008.6 0.0
29/12:30am 23.1 21.9 11.5 48 6.5 SSW 9 11 5 6 1010.6 1010.0 0.0
29/12:00am 23.8 21.8 11.5 46 7.0 SSE 13 15 7 8 1010.5 1009.9 0.0
 
Date/Time
EST
Temp
°C
App
Temp
°C
Dew
Point
°C
Rel
Hum
%
Delta-T
°C
Wind Press
QNH
hPa
Press
MSL
hPa
Rain since
9am
mm
Dir  Spd
km/h
Gust
km/h
Spd
kts
Gust
kts
28/11:30pm 24.9 22.1 11.5 43 7.6 SE 17 22 9 12 1010.2 1009.6 0.0
28/11:00pm 25.3 22.0 11.5 42 7.9 ESE 20 28 11 15 1009.7 1009.1 0.0
28/10:30pm 25.9 22.0 12.0 42 8.0 SE 24 35 13 19 1009.7 1009.1 0.0

Other Formats:

Comma delimited format used in spreadsheet applications
http://www.bom.gov.au/fwo/IDQ60801/IDQ60801.94337.axf

JavaScript Object Notation format (JSON) in row-major order
http://www.bom.gov.au/fwo/IDQ60801/IDQ60801.94337.json